Observations for BRISTOL LULSGATE, United Kingdom (EGGD)

EGGD 221220Z AUTO 10010KT 9999 SCT011 OVC035 20/17 Q1018
EGGD 221150Z AUTO 12009KT 9999 SCT010 OVC032 19/17 Q1018
EGGD 221120Z AUTO 10010KT 9999 BKN008 OVC031 19/17 Q1018
EGGD 221050Z AUTO 10010KT 9999 BKN007 18/17 Q1018   
EGGD 221020Z AUTO 09012KT 9999 BKN005 BKN031 18/17 Q1018
EGGD 220950Z AUTO 10011KT 9999 BKN004 OVC030 17/17 Q1019
EGGD 220920Z 11009KT 9999 SCT003 BKN004 17/16 Q1019 
EGGD 220850Z 11009KT 9999 BKN004 17/16 Q1019
EGGD 220820Z 10010KT 9999 FEW002 17/17 Q1019
EGGD 220750Z AUTO 10009KT 9999 BKN001 16/16 Q1019   
EGGD 220720Z AUTO 10008KT 9999 BKN001 16/16 Q1019   
EGGD 220650Z AUTO 10008KT 0350 R27/0275 FG VV/// 16/16 Q1020
EGGD 220620Z 09005KT 0650 R09/P1500 FG NSC 16/16 Q1020  
EGGD 220550Z AUTO 10005KT 9999 NCD 16/16 Q1019  
EGGD 220520Z 12004KT 9999 VCFG NSC 16/15 Q1019  
EGGD 220450Z 12003KT 9999 MIFG NSC 16/15 Q1019  
EGGD 220420Z AUTO 12004KT 9999 NCD 16/16 Q1019  
EGGD 220350Z AUTO 11004KT 8000 NCD 16/16 Q1019  
EGGD 220320Z AUTO 11004KT 9000 NCD 16/16 Q1019  
EGGD 220250Z AUTO 11004KT 9999 NCD 16/16 Q1019  
EGGD 220220Z AUTO 13003KT 9999 NCD 17/16 Q1020  
EGGD 220150Z AUTO 13003KT 9999 NCD 17/16 Q1020  
EGGD 220120Z AUTO 09003KT 9999 NCD 16/16 Q1020  
EGGD 220050Z AUTO 09002KT 9999 NCD 16/16 Q1020  
EGGD 220020Z AUTO VRB01KT 9999 NCD 17/16 Q1020  
EGGD 212350Z AUTO VRB02KT 9999 BKN013 17/15 Q1020   
EGGD 212320Z AUTO 27001KT 9999 OVC013 18/17 Q1020   
EGGD 212250Z AUTO 20001KT 9999 OVC014 18/17 Q1021   
EGGD 212220Z AUTO VRB02KT 9999 OVC015 18/17 Q1021   
EGGD 212150Z AUTO 27004KT 9999 OVC015 18/17 Q1021   
EGGD 212120Z AUTO 24003KT 9999 BKN015 18/17 Q1021   
EGGD 212050Z AUTO 21003KT 9999 OVC015 18/17 Q1021   
EGGD 212020Z AUTO VRB03KT 9999 BKN016 OVC034 18/17 Q1021
EGGD 211950Z AUTO 23004KT 9999 SCT018 BKN023 OVC031 18/17 Q1021 
EGGD 211920Z AUTO 27005KT 9999 BKN021 BKN025 OVC032 19/17 Q1020 
EGGD 211850Z AUTO 27004KT 9999 FEW024 OVC031 19/17 Q1020
EGGD 211820Z AUTO 26005KT 9999 OVC024 19/17 Q1020   
EGGD 211750Z AUTO 26005KT 9999 BKN031 20/18 Q1020   
EGGD 211720Z 27006KT 9999 SCT013 20/18 Q1020
EGGD 211650Z 27007KT 240V300 9999 SCT017 20/18 Q1020
EGGD 211620Z 27007KT 240V300 9999 FEW014 SCT047 21/18 Q1020 
EGGD 211550Z 27007KT 230V300 9999 SCT015 21/17 Q1020
EGGD 211520Z 25005KT 180V300 9999 SCT014 21/17 Q1020
EGGD 211450Z 26007KT 9999 SCT013 SCT024 21/17 Q1021 
EGGD 211420Z 25007KT 210V280 9999 SCT013 21/18 Q1021
EGGD 211350Z AUTO 27008KT 240V310 9999 BKN011 21/18 Q1021   
EGGD 211320Z 26007KT 9999 FEW011 20/18 Q1021
EGGD 211250Z 25007KT 210V270 9999 FEW007 SCT010 20/18 Q1021 
EGGD 211220Z 27009KT 9999 SCT002 BKN007 18/18 Q1021 
EGGD 211150Z AUTO 28008KT 240V300 9999 BKN001 OVC004 18/18 Q1021